• Join FlightAware (Why Join?)
  • Login
  • US Flag 
08:37PM EDT


 

Airport Tracker/Info


-or-


 

Live Flight TrackerFlight Track Log ✈ JIA2328 ✈ 25-May-2013 ✈ KPHL - KALB

Flight Track Log - Related Links

Times and Time Zones

All times are in EDT time to prevent confusion due to time zone crossing. See the JIA2328 flight status page for this flight to view local times or setup timezone preferences in your user account.

Time Position Orientation Groundspeed Altitude Reporting Facility
EDT Latitude Longitude Course Direction KTS MPH feet Rate Location/Type
07:45AM 39.8667 -75.2833 218° Southwest 164 189 800  Level Philadelphia TRACON
07:46AM 39.8500 -75.3000 218° Southwest 185 213 1,800 2,520 Climbing Philadelphia TRACON
07:47AM 39.7833 -75.3333 201° Southwest 251 289 4,400 2,580 Climbing Philadelphia TRACON
07:49AM 39.7058 -75.2339 135° Southeast 182 209 10,300 2,280 Climbing New York Center
07:50AM 39.7219 -75.1406 77° East 243 280 12,000 840 Climbing New York Center
07:51AM 39.7433 -75.0122 78° East 303 349 12,000 120 Level New York Center
07:52AM 39.7617 -74.9081 77° East 334 384 12,300 1,260 Climbing New York Center
07:53AM 39.7853 -74.7717 77° East 339 390 14,500 2,340 Climbing New York Center
07:54AM 39.8300 -74.6742 95° East 314 361 17,000 2,280 Climbing New York Center
07:55AM 39.9031 -74.6078 35° Northeast 309 356 19,100 1,920 Climbing New York Center
07:56AM 39.9783 -74.5389 35° Northeast 309 356 20,900 900 Climbing New York Center
07:57AM 40.0600 -74.4592 37° Northeast 339 390 21,000  Climbing New York Center
07:58AM 40.1483 -74.3717 37° Northeast 370 426 21,000  Level New York Center
07:59AM 40.2383 -74.2867 36° Northeast 385 443 21,100 900 Climbing New York Center
08:00AM 40.3242 -74.2039 36° Northeast 390 449 22,900 960 Climbing New York Center
08:01AM 40.4100 -74.1183 37° Northeast 390 449 23,100 540 Climbing New York Center
08:02AM 40.4956 -74.0350 37° Northeast 380 437 24,000 240 Climbing New York Center
08:04AM 40.6889 -73.8469 36° Northeast 390 449 24,000  Level Boston Center
08:05AM 40.7775 -73.7583 37° Northeast 390 449 24,000  Level Boston Center
08:06AM 40.8642 -73.6669 39° Northeast 390 449 24,000 -240 Level Boston Center
08:07AM 40.9483 -73.5833 37° Northeast 385 443 23,600 -540 Descending Boston Center
08:08AM 41.0367 -73.5078 33° Northeast 379 436 23,000 -540 Descending Boston Center
08:09AM 41.1367 -73.4983 North 361 415 22,600 -780 Descending Boston Center
08:10AM 41.2303 -73.5028 358° North 348 400 21,500 -1,260 Descending Boston Center
08:11AM 41.3261 -73.5069 358° North 343 395 20,100 -1,200 Descending Boston Center
08:12AM 41.4097 -73.5028 North 348 400 19,200 -780 Descending Boston Center
08:13AM 41.5242 -73.5103 357° North 348 400 18,600 -900 Descending Boston Center
08:14AM 41.6117 -73.5119 359° North 348 400 17,400 -1,500 Descending Boston Center
08:15AM 41.7114 -73.5358 350° North 343 395 15,600 -1,980 Descending Boston Center
08:16AM 41.7967 -73.5567 350° North 343 395 13,500 -2,220 Descending Boston Center
08:17AM 41.8903 -73.5836 348° North 323 372 11,200 -1,260 Descending Boston Center
08:18AM 41.9756 -73.6044 350° North 314 361 11,000 -120 Descending Boston Center
08:19AM 42.0483 -73.6228 349° North 340 391 11,000  Level Boston Center
08:19AM 42.0897 -73.6347 348° North 326 375 11,000  Level Boston Center
08:20AM 42.1439 -73.6525 346° North 349 402 11,000  Level Boston Center
08:20AM 42.1833 -73.6700 342° North 338 389 11,000 -120 Level Boston Center
08:21AM 42.2353 -73.6878 346° North 343 395 10,900 -600 Descending Boston Center
08:21AM 42.2683 -73.6997 345° North 332 382 10,400 -1,500 Descending Boston Center
08:22AM 42.3119 -73.7119 348° North 275 316 9,400 -1,620 Descending Boston Center
08:22AM 42.3431 -73.7239 344° North 301 346 8,800 -1,680 Descending Boston Center
08:23AM 42.3825 -73.7386 345° North 260 299 7,700 -2,040 Descending Boston Center
08:23AM 42.4117 -73.7478 347° North 262 302 6,800 -1,920 Descending Boston Center
08:24AM 42.4489 -73.7625 344° North 247 284 5,800 -1,740 Descending Boston Center
08:24AM 42.4761 -73.7686 351° North 244 281 5,100 -1,800 Descending Boston Center
08:25AM 42.5092 -73.7806 345° North 220 253 4,000 -1,920 Descending Boston Center
08:25AM 42.5342 -73.7897 345° North 223 257 3,200 -1,020 Descending Boston Center
08:26AM 42.5672 -73.7989 348° North 190 219 3,000 -240 Descending Boston Center
08:26AM 42.5839 -73.7992 359° North 206 237 3,000 -120 Level Boston Center
08:27AM 42.6089 -73.8025 354° North 144 166 2,900 -180 Descending Boston Center